Time;durP1;ratioP1;P1;durP2;ratioP2;P2;SDS_P1;SDS_P2;PMS_P1;PMS_P2;Temp;Humidity;BMP_temperature;BMP_pressure;BME280_temperature;BME280_humidity;BME280_pressure;Samples;Min_cycle;Max_cycle;Signal;HPM_P1;HPM_P2
2022/08/31 00:05:10;;;;;;;4.50;2.60;;;;;;;21.32;33.66;101564.53;5057552;28;20045;-86
2022/08/31 00:07:38;;;;;;;4.00;2.33;;;;;;;21.29;33.57;101567.69;5066276;28;20102;-83
2022/08/31 00:10:17;;;;;;;4.10;2.45;;;;;;;21.27;34.58;101567.03;5079535;28;20049;-85
2022/08/31 00:12:48;;;;;;;4.18;2.58;;;;;;;21.22;34.07;101569.47;5086837;28;20046;-85
2022/08/31 00:15:19;;;;;;;4.15;2.13;;;;;;;21.20;34.49;101574.34;5079632;28;20037;-85
2022/08/31 00:17:52;;;;;;;4.97;2.47;;;;;;;21.14;34.23;101570.41;5078068;28;20050;-85
2022/08/31 00:20:22;;;;;;;5.28;2.60;;;;;;;21.10;34.09;101560.72;5090311;28;20093;-85
2022/08/31 00:23:02;;;;;;;4.18;2.50;;;;;;;21.01;34.01;101559.91;5089610;28;20086;-84
2022/08/31 00:25:33;;;;;;;4.07;2.38;;;;;;;20.97;34.25;101555.75;5075189;28;20069;-85
2022/08/31 00:28:01;;;;;;;4.40;2.38;;;;;;;20.88;33.68;101548.50;5072667;28;20154;-84
2022/08/31 00:30:30;;;;;;;4.32;2.35;;;;;;;20.82;33.64;101552.06;5074592;28;20036;-85
2022/08/31 00:32:59;;;;;;;4.90;2.67;;;;;;;20.74;34.20;101558.53;5063209;28;20060;-84
2022/08/31 00:35:28;;;;;;;4.28;2.28;;;;;;;20.68;34.28;101556.50;5086437;28;20037;-84
2022/08/31 00:37:57;;;;;;;3.83;2.45;;;;;;;20.61;34.33;101558.25;5069982;28;20078;-84
2022/08/31 00:40:25;;;;;;;4.32;2.40;;;;;;;20.56;34.58;101559.84;5079564;28;20826;-84
2022/08/31 00:42:56;;;;;;;4.00;2.53;;;;;;;20.52;34.61;101559.34;5089604;28;20048;-84
2022/08/31 00:45:24;;;;;;;3.83;2.30;;;;;;;20.44;34.30;101550.19;5084976;28;20464;-84
2022/08/31 00:47:56;;;;;;;4.80;2.50;;;;;;;20.40;35.08;101547.75;5070017;28;20048;-84
2022/08/31 00:50:25;;;;;;;3.58;2.33;;;;;;;20.30;34.37;101546.25;5088033;28;20112;-84
2022/08/31 00:52:56;;;;;;;4.03;2.63;;;;;;;20.27;34.64;101538.28;5074224;28;20036;-84
2022/08/31 00:55:30;;;;;;;3.75;2.53;;;;;;;20.21;35.32;101539.88;5061176;28;20083;-84
2022/08/31 00:58:02;;;;;;;3.97;2.90;;;;;;;20.15;35.18;101532.25;5079942;28;20062;-83
2022/08/31 01:00:31;;;;;;;3.70;2.17;;;;;;;20.08;34.83;101542.38;5077428;28;20563;-84
2022/08/31 01:03:02;;;;;;;3.50;2.35;;;;;;;20.05;34.96;101539.06;5086350;28;20045;-83
2022/08/31 01:05:31;;;;;;;4.25;2.55;;;;;;;19.99;35.40;101541.53;5073400;28;20044;-83
2022/08/31 01:08:00;;;;;;;4.05;2.10;;;;;;;19.95;34.94;101537.38;5088443;28;20093;-83
2022/08/31 01:10:33;;;;;;;4.78;2.67;;;;;;;19.94;36.26;101546.78;5085101;28;20046;-84
2022/08/31 01:13:03;;;;;;;3.22;2.15;;;;;;;19.89;36.06;101543.63;5087533;28;20060;-84
2022/08/31 01:15:32;;;;;;;3.85;2.60;;;;;;;19.89;36.03;101551.09;5073219;28;20648;-84
2022/08/31 01:18:04;;;;;;;3.35;2.35;;;;;;;19.90;36.13;101552.81;5074418;28;20503;-85
2022/08/31 01:20:45;;;;;;;4.00;2.40;;;;;;;19.87;37.01;101548.47;5074101;28;20044;-84
2022/08/31 01:23:22;;;;;;;3.70;2.33;;;;;;;19.87;36.65;101558.75;5076834;28;20317;-84
2022/08/31 01:25:53;;;;;;;4.20;2.25;;;;;;;19.85;35.85;101555.28;5074697;28;20419;-84
2022/08/31 01:28:22;;;;;;;4.22;2.30;;;;;;;19.81;35.65;101551.97;5077214;28;20090;-84
2022/08/31 01:31:01;;;;;;;3.92;2.10;;;;;;;19.83;35.80;101554.59;5073764;28;20044;-84
2022/08/31 01:33:32;;;;;;;3.38;2.22;;;;;;;19.75;35.33;101552.69;5090783;28;20044;-84
2022/08/31 01:36:00;;;;;;;4.18;2.70;;;;;;;19.72;35.40;101555.81;5073439;28;20044;-84
2022/08/31 01:38:31;;;;;;;3.70;2.15;;;;;;;19.68;34.87;101561.91;5072913;28;20048;-83
2022/08/31 01:41:01;;;;;;;3.75;2.60;;;;;;;19.59;34.84;101550.84;5074312;28;20036;-84
2022/08/31 01:43:32;;;;;;;4.30;2.28;;;;;;;19.54;34.69;101550.47;5077226;28;20044;-83
2022/08/31 01:46:01;;;;;;;3.58;2.50;;;;;;;19.48;34.83;101562.28;5077435;28;20053;-83
2022/08/31 01:48:30;;;;;;;3.55;2.40;;;;;;;19.43;35.18;101567.53;5087527;28;20036;-83
2022/08/31 01:50:58;;;;;;;3.40;2.20;;;;;;;19.39;34.81;101568.91;5085529;28;20044;-83
2022/08/31 01:53:26;;;;;;;4.38;2.35;;;;;;;19.33;34.90;101566.81;5073761;28;20076;-83
2022/08/31 01:55:56;;;;;;;3.15;2.15;;;;;;;19.30;35.33;101569.94;5073084;28;20113;-83
2022/08/31 01:58:24;;;;;;;3.63;2.17;;;;;;;19.23;35.26;101563.38;5069977;28;20130;-83
2022/08/31 02:01:11;;;;;;;4.32;2.40;;;;;;;19.19;35.21;101571.16;5073354;28;20055;-82
2022/08/31 02:03:59;;;;;;;3.38;2.20;;;;;;;19.14;35.20;101570.78;5085072;28;20044;-82
2022/08/31 02:06:27;;;;;;;5.00;2.15;;;;;;;19.11;35.10;101576.69;5080923;28;20044;-82
2022/08/31 02:08:55;;;;;;;3.00;2.00;;;;;;;19.09;35.49;101575.13;5080372;28;20041;-82
2022/08/31 02:11:25;;;;;;;3.22;1.83;;;;;;;19.06;35.06;101572.69;5060783;28;20387;-82
2022/08/31 02:13:53;;;;;;;3.22;2.25;;;;;;;19.03;35.22;101575.84;5073446;28;20044;-82
2022/08/31 02:16:21;;;;;;;3.00;1.90;;;;;;;19.00;35.22;101573.38;5074106;28;20123;-82
2022/08/31 02:18:49;;;;;;;3.53;1.92;;;;;;;18.97;35.76;101574.59;5073132;28;20135;-82
2022/08/31 02:21:18;;;;;;;3.63;2.00;;;;;;;18.94;35.63;101576.84;5072180;28;20499;-81
2022/08/31 02:23:46;;;;;;;3.50;2.10;;;;;;;18.91;35.84;101578.06;5071881;28;20056;-82
2022/08/31 02:26:14;;;;;;;3.63;2.13;;;;;;;18.92;35.37;101581.69;5081301;28;20040;-82
2022/08/31 02:28:46;;;;;;;2.58;1.80;;;;;;;18.91;35.59;101580.84;5078138;28;20051;-82
2022/08/31 02:31:15;;;;;;;3.38;2.08;;;;;;;18.88;36.18;101579.25;5072104;28;20040;-81
2022/08/31 02:33:51;;;;;;;3.30;2.00;;;;;;;18.86;35.72;101589.69;5074292;28;20051;-81
2022/08/31 02:36:21;;;;;;;3.10;1.98;;;;;;;18.85;36.27;101579.63;5072281;28;20075;-81
2022/08/31 02:38:51;;;;;;;2.50;1.70;;;;;;;18.83;36.10;101584.47;5075518;28;20044;-81
2022/08/31 02:41:19;;;;;;;4.45;1.98;;;;;;;18.83;35.87;101576.16;5071748;28;20161;-81
2022/08/31 02:43:50;;;;;;;2.88;1.88;;;;;;;18.85;36.36;101585.16;5071446;28;20064;-82
2022/08/31 02:46:18;;;;;;;3.58;2.05;;;;;;;18.82;36.48;101585.50;5086080;28;20036;-82
2022/08/31 02:48:56;;;;;;;4.03;1.98;;;;;;;18.82;36.04;101581.84;5071049;28;20036;-81
2022/08/31 02:51:25;;;;;;;2.80;1.90;;;;;;;18.79;36.09;101577.53;5073351;28;20041;-81
2022/08/31 02:53:53;;;;;;;2.63;1.70;;;;;;;18.81;36.71;101586.53;5085381;28;20124;-81
2022/08/31 02:56:22;;;;;;;3.97;1.80;;;;;;;18.81;36.72;101591.22;5074786;28;20056;-81
2022/08/31 02:58:53;;;;;;;2.10;1.70;;;;;;;18.81;36.23;101589.31;5073856;28;20123;-81
2022/08/31 03:01:25;;;;;;;3.03;1.80;;;;;;;18.79;36.39;101583.09;5068425;28;20065;-81
2022/08/31 03:03:53;;;;;;;3.17;1.70;;;;;;;18.81;36.36;101582.88;5081316;28;20138;-81
2022/08/31 03:06:22;;;;;;;3.10;1.75;;;;;;;18.81;36.91;101582.88;5078557;28;20048;-81
2022/08/31 03:08:50;;;;;;;3.67;1.85;;;;;;;18.81;36.77;101581.00;5079189;28;20550;-81
2022/08/31 03:11:19;;;;;;;3.45;1.70;;;;;;;18.81;36.32;101577.34;5089774;28;20093;-81
2022/08/31 03:13:47;;;;;;;3.60;1.67;;;;;;;18.81;36.51;101581.00;5077681;28;20040;-81
2022/08/31 03:16:17;;;;;;;2.35;1.67;;;;;;;18.83;37.12;101576.16;5071093;28;20071;-81
2022/08/31 03:18:47;;;;;;;3.40;1.73;;;;;;;18.82;37.37;101584.63;5070308;28;20059;-81
2022/08/31 03:21:15;;;;;;;3.30;2.05;;;;;;;18.83;37.17;101583.59;5078489;28;20066;-81
2022/08/31 03:23:44;;;;;;;3.70;2.20;;;;;;;18.83;37.26;101584.47;5087400;28;20036;-81
2022/08/31 03:26:13;;;;;;;2.67;1.70;;;;;;;18.84;37.46;101583.44;5071456;28;20044;-81
2022/08/31 03:28:41;;;;;;;4.03;1.90;;;;;;;18.85;37.26;101587.06;5072061;28;20040;-81
2022/08/31 03:31:37;;;;;;;3.65;2.10;;;;;;;18.85;37.63;101578.75;5057304;28;20546;-81
2022/08/31 03:34:06;;;;;;;3.97;2.30;;;;;;;18.83;37.21;101578.91;5070076;28;20098;-81
2022/08/31 03:36:34;;;;;;;3.70;2.10;;;;;;;18.84;37.57;101585.34;5070897;28;20052;-81
2022/08/31 03:39:02;;;;;;;3.78;1.95;;;;;;;18.83;37.25;101578.03;5070471;28;20078;-81
2022/08/31 03:41:30;;;;;;;3.65;2.28;;;;;;;18.83;37.19;101580.81;5070744;28;20033;-79
2022/08/31 03:44:00;;;;;;;4.10;2.13;;;;;;;18.82;37.60;101581.84;5077987;28;20051;-81
2022/08/31 03:46:32;;;;;;;3.15;1.92;;;;;;;18.81;37.64;101578.22;5058691;28;20049;-80
2022/08/31 03:49:06;;;;;;;3.33;2.10;;;;;;;18.80;37.46;101576.47;5079836;28;20070;-80
2022/08/31 03:51:34;;;;;;;3.42;2.25;;;;;;;18.78;37.83;101570.25;5086939;28;20854;-80
2022/08/31 03:54:04;;;;;;;2.97;2.13;;;;;;;18.78;37.58;101578.56;5073448;28;20044;-80
2022/08/31 03:56:34;;;;;;;3.17;2.17;;;;;;;18.79;37.66;101576.66;5091395;28;20097;-80
2022/08/31 03:59:03;;;;;;;4.25;2.40;;;;;;;18.76;37.67;101574.22;5083674;28;20075;-80
2022/08/31 04:01:49;;;;;;;3.60;2.20;;;;;;;18.73;37.55;101574.56;5059504;28;20102;-80
2022/08/31 04:04:37;;;;;;;3.08;1.90;;;;;;;18.74;38.16;101581.84;5075070;28;20129;-80
2022/08/31 04:07:24;;;;;;;3.03;2.08;;;;;;;18.70;37.68;101583.25;5092703;28;20413;-81
2022/08/31 04:10:11;;;;;;;3.50;1.67;;;;;;;18.67;37.96;101586.34;5067460;28;20052;-80
2022/08/31 04:12:59;;;;;;;3.05;1.67;;;;;;;18.66;38.00;101584.59;5071566;28;20127;-80
2022/08/31 04:15:47;;;;;;;3.72;1.95;;;;;;;18.66;37.64;101587.38;5074830;28;20041;-80
2022/08/31 04:18:34;;;;;;;2.55;1.80;;;;;;;18.65;37.61;101591.19;5083321;28;20121;-80
2022/08/31 04:21:04;;;;;;;3.67;2.00;;;;;;;18.67;38.44;101587.22;5071276;28;20055;-80
2022/08/31 04:23:32;;;;;;;3.03;1.60;;;;;;;18.65;38.02;101583.72;5084517;28;20044;-80
2022/08/31 04:26:00;;;;;;;3.40;1.77;;;;;;;18.65;38.31;101582.88;5061501;28;20048;-79
2022/08/31 04:28:28;;;;;;;3.30;1.83;;;;;;;18.64;37.82;101583.91;5065833;28;20041;-80
2022/08/31 04:30:56;;;;;;;3.65;1.77;;;;;;;18.64;38.01;101586.66;5074617;28;20036;-80
2022/08/31 04:33:25;;;;;;;4.13;2.13;;;;;;;18.61;37.79;101579.59;5074626;28;20046;-80
2022/08/31 04:35:53;;;;;;;3.47;1.77;;;;;;;18.60;38.48;101585.28;5067018;28;20086;-80
2022/08/31 04:38:22;;;;;;;4.07;2.15;;;;;;;18.62;38.22;101588.78;5069300;28;20068;-80
2022/08/31 04:40:50;;;;;;;5.43;2.05;;;;;;;18.57;38.16;101585.63;5083194;28;20047;-81
2022/08/31 04:43:19;;;;;;;4.22;2.38;;;;;;;18.53;37.75;101585.09;5077620;28;20040;-81
2022/08/31 04:45:51;;;;;;;4.20;2.50;;;;;;;18.49;37.71;101590.09;5084107;28;20052;-80
2022/08/31 04:48:19;;;;;;;3.60;2.22;;;;;;;18.48;37.83;101595.78;5076774;28;20086;-80
2022/08/31 04:50:49;;;;;;;5.00;2.78;;;;;;;18.44;37.87;101588.84;5082623;28;20047;-80
2022/08/31 04:53:17;;;;;;;4.25;2.40;;;;;;;18.42;37.93;101593.69;5092900;28;20472;-81
2022/08/31 04:55:47;;;;;;;3.63;2.20;;;;;;;18.39;38.32;101594.03;5094897;28;20516;-81
2022/08/31 04:58:19;;;;;;;3.40;2.17;;;;;;;18.33;38.35;101587.25;5075266;28;20044;-81
2022/08/31 05:00:47;;;;;;;3.80;2.35;;;;;;;18.29;37.90;101585.88;5078556;28;20048;-80
2022/08/31 05:03:44;;;;;;;2.78;1.90;;;;;;;18.25;38.05;101591.88;5066069;28;20040;-80
2022/08/31 05:06:16;;;;;;;3.33;2.20;;;;;;;18.26;38.13;101599.16;5074036;28;20098;-80
2022/08/31 05:08:44;;;;;;;3.85;2.25;;;;;;;18.18;38.58;101597.22;5074573;28;20086;-80
2022/08/31 05:11:18;;;;;;;3.75;1.95;;;;;;;18.21;38.45;101604.34;5073410;28;20092;-81
2022/08/31 05:13:52;;;;;;;3.22;1.80;;;;;;;18.17;38.16;101592.72;5073092;28;20044;-80
2022/08/31 05:16:20;;;;;;;2.60;1.83;;;;;;;18.15;38.73;101592.00;5053884;28;20044;-80
2022/08/31 05:18:50;;;;;;;3.10;1.88;;;;;;;18.15;38.21;101594.78;5080801;28;20085;-80
2022/08/31 05:21:24;;;;;;;3.00;1.70;;;;;;;18.15;38.30;101603.97;5073089;28;20475;-80
2022/08/31 05:23:56;;;;;;;2.67;1.58;;;;;;;18.14;38.10;101606.94;5074214;28;20123;-83
2022/08/31 05:26:32;;;;;;;3.80;1.75;;;;;;;18.14;38.73;101593.91;5073788;28;20056;-81
2022/08/31 05:29:02;;;;;;;4.00;1.77;;;;;;;18.12;38.36;101604.31;5077471;28;20064;-80
2022/08/31 05:31:34;;;;;;;4.05;1.88;;;;;;;18.11;38.41;101607.25;5076800;28;20599;-80
2022/08/31 05:34:03;;;;;;;3.05;1.80;;;;;;;18.11;38.65;101607.25;5078851;28;20052;-80
2022/08/31 05:36:37;;;;;;;2.75;1.63;;;;;;;18.10;38.70;101594.44;5092926;28;20077;-80
2022/08/31 05:39:08;;;;;;;4.10;1.80;;;;;;;18.09;38.44;101604.63;5072444;28;20052;-80
2022/08/31 05:41:38;;;;;;;2.50;1.55;;;;;;;18.09;39.18;101609.31;5072591;28;20507;-80
2022/08/31 05:44:07;;;;;;;3.65;2.20;;;;;;;18.08;38.77;101610.34;5082395;28;20048;-79
2022/08/31 05:46:37;;;;;;;3.58;1.90;;;;;;;18.06;38.70;101607.72;5080073;28;20086;-80
2022/08/31 05:49:08;;;;;;;3.67;1.90;;;;;;;18.07;38.89;101611.38;5083190;28;20071;-80
2022/08/31 05:51:38;;;;;;;3.67;1.65;;;;;;;18.01;38.57;101604.59;5076273;28;20044;-79
2022/08/31 05:54:09;;;;;;;2.60;1.65;;;;;;;18.02;38.91;101608.22;5092356;28;20047;-80
2022/08/31 05:56:41;;;;;;;3.60;2.00;;;;;;;18.01;39.27;101612.91;5075364;28;20655;-79
2022/08/31 05:59:11;;;;;;;3.20;1.88;;;;;;;18.00;39.23;101604.75;5079060;28;20037;-80
2022/08/31 06:01:41;;;;;;;3.75;1.90;;;;;;;17.96;39.39;101611.66;5077085;28;20048;-80
2022/08/31 06:04:12;;;;;;;3.15;1.58;;;;;;;17.93;39.29;101604.56;5086523;28;20062;-80
2022/08/31 06:06:41;;;;;;;2.90;1.58;;;;;;;17.95;38.92;101604.41;5072990;28;20051;-80
2022/08/31 06:09:15;;;;;;;4.45;1.90;;;;;;;17.89;39.76;101607.81;5071787;28;20427;-81
2022/08/31 06:11:47;;;;;;;3.40;1.92;;;;;;;17.90;39.37;101604.00;5072093;28;20051;-81
2022/08/31 06:14:18;;;;;;;2.90;1.80;;;;;;;17.91;39.32;101606.59;5072448;28;20044;-82
2022/08/31 06:16:49;;;;;;;3.72;1.70;;;;;;;17.92;39.50;101611.13;5073220;28;20041;-82
2022/08/31 06:19:20;;;;;;;3.08;1.60;;;;;;;17.90;39.25;101610.41;5090515;28;20047;-82
2022/08/31 06:21:50;;;;;;;3.15;1.80;;;;;;;17.92;39.72;101613.03;5078261;28;20049;-72
2022/08/31 06:24:22;;;;;;;5.18;1.60;;;;;;;17.92;39.26;101608.34;5060597;28;20139;-72
2022/08/31 06:26:55;;;;;;;3.63;2.00;;;;;;;17.94;40.07;101614.59;5088188;28;20047;-72
2022/08/31 06:29:30;;;;;;;3.13;1.67;;;;;;;17.94;39.87;101617.38;5063488;28;20048;-72
2022/08/31 06:32:08;;;;;;;3.38;1.80;;;;;;;17.94;39.38;101605.41;5069680;28;20498;-72
2022/08/31 06:34:47;;;;;;;3.45;1.75;;;;;;;17.96;39.91;101611.66;5063210;28;20052;-72
2022/08/31 06:37:35;;;;;;;3.45;1.98;;;;;;;17.95;40.00;101615.47;5060853;28;20048;-72
2022/08/31 06:40:16;;;;;;;2.65;1.77;;;;;;;18.00;39.40;101613.06;5074510;28;20618;-72
2022/08/31 06:43:18;;;;;;;2.47;1.48;;;;;;;18.04;39.50;101608.94;5074620;28;20076;-72
2022/08/31 06:45:56;;;;;;;2.83;1.52;;;;;;;18.09;40.45;101620.38;5070940;28;20048;-72
2022/08/31 06:49:00;;;;;;;3.10;1.85;;;;;;;18.10;40.03;101613.81;5028907;28;20053;-72
2022/08/31 06:51:35;;;;;;;3.85;1.92;;;;;;;18.17;40.07;101616.78;5057917;28;20132;-73
2022/08/31 06:54:03;;;;;;;2.80;1.67;;;;;;;18.21;39.69;101615.44;5070496;28;20068;-72
2022/08/31 06:57:23;;;;;;;3.08;2.08;;;;;;;18.27;40.03;101617.53;5050051;28;20127;-72
2022/08/31 07:00:12;;;;;;;3.30;2.13;;;;;;;18.37;40.45;101626.59;5076665;28;20048;-71
2022/08/31 07:02:47;;;;;;;2.80;1.80;;;;;;;18.49;39.77;101631.69;5076927;28;20150;-72
2022/08/31 07:05:24;;;;;;;2.72;1.67;;;;;;;18.64;39.68;101631.03;5075077;28;20437;-71
2022/08/31 07:07:53;;;;;;;2.60;1.70;;;;;;;18.76;40.03;101636.09;5081886;28;20060;-72
2022/08/31 07:10:22;;;;;;;3.60;2.08;;;;;;;18.88;39.59;101634.72;5070653;28;20051;-72
2022/08/31 07:12:50;;;;;;;3.65;2.00;;;;;;;19.04;39.11;101641.38;5069472;28;20094;-72
2022/08/31 07:15:19;;;;;;;4.40;2.17;;;;;;;19.19;39.47;101648.84;5070524;28;20507;-71
2022/08/31 07:17:48;;;;;;;3.72;1.80;;;;;;;19.33;39.07;101646.44;5069562;28;20695;-72
2022/08/31 07:20:16;;;;;;;4.18;2.15;;;;;;;19.45;39.30;101643.19;5070396;28;20474;-72
2022/08/31 07:22:45;;;;;;;4.35;2.10;;;;;;;19.65;39.27;101643.66;5069318;28;20056;-72
2022/08/31 07:25:48;;;;;;;3.60;2.15;;;;;;;19.84;38.88;101650.78;5042379;28;20056;-72
2022/08/31 07:28:16;;;;;;;3.72;1.90;;;;;;;20.02;38.19;101644.00;5069157;28;20040;-71
2022/08/31 07:30:48;;;;;;;3.67;2.20;;;;;;;20.23;37.94;101648.97;5070630;28;20036;-72
2022/08/31 07:33:18;;;;;;;4.13;2.25;;;;;;;20.40;37.82;101645.06;5065801;28;20060;-71
2022/08/31 07:35:52;;;;;;;4.72;2.35;;;;;;;20.60;37.67;101647.47;5070708;28;20097;-71
2022/08/31 07:44:19;;;;;;;4.13;2.20;;;;;;;21.08;35.98;101655.53;4993161;28;20530;-71
2022/08/31 07:46:51;;;;;;;3.78;2.30;;;;;;;21.19;35.80;101648.63;5009789;28;20638;-71
2022/08/31 07:49:21;;;;;;;3.63;2.20;;;;;;;21.24;36.00;101653.66;5018581;28;20053;-71
2022/08/31 07:51:58;;;;;;;3.65;2.00;;;;;;;21.28;35.39;101655.06;5069873;28;20051;-71
2022/08/31 07:54:45;;;;;;;3.40;2.17;;;;;;;21.30;35.55;101651.03;5067292;28;20491;-71
2022/08/31 07:57:30;;;;;;;3.65;2.10;;;;;;;21.34;35.37;101662.69;5071326;28;20041;-71
2022/08/31 08:00:06;;;;;;;6.75;2.72;;;;;;;21.34;35.39;101660.75;5072554;28;20123;-71
2022/08/31 08:02:45;;;;;;;5.30;2.45;;;;;;;21.34;34.90;101663.56;5068883;28;20127;-72
2022/08/31 08:05:24;;;;;;;4.05;2.20;;;;;;;21.34;35.02;101657.97;5068524;28;20045;-71
2022/08/31 08:08:13;;;;;;;5.03;2.08;;;;;;;21.26;35.01;101668.31;5062441;28;20493;-72
2022/08/31 08:11:08;;;;;;;3.92;2.13;;;;;;;21.21;34.78;101666.03;5064678;28;20052;-71
2022/08/31 08:13:45;;;;;;;3.53;2.10;;;;;;;21.20;34.77;101669.00;5069274;28;20068;-71
2022/08/31 08:16:19;;;;;;;2.95;1.80;;;;;;;21.19;34.90;101672.84;5076553;28;20044;-71
2022/08/31 08:19:07;;;;;;;5.40;2.10;;;;;;;21.20;35.03;101674.56;5069024;28;20533;-71
2022/08/31 08:21:36;;;;;;;4.50;2.13;;;;;;;21.19;35.73;101670.91;5069036;28;20101;-71
2022/08/31 08:24:06;;;;;;;3.55;2.15;;;;;;;21.21;35.59;101660.47;5083062;28;20051;-71
2022/08/31 08:26:54;;;;;;;5.13;2.70;;;;;;;21.21;35.49;101668.81;5071076;28;20063;-71
2022/08/31 08:29:32;;;;;;;3.92;2.22;;;;;;;21.26;35.40;101660.84;5064955;28;20491;-71
2022/08/31 08:32:03;;;;;;;3.92;2.30;;;;;;;21.31;35.22;101666.69;5068923;28;20047;-72
2022/08/31 08:34:33;;;;;;;3.97;2.28;;;;;;;21.34;34.95;101657.13;5058414;28;20048;-72
2022/08/31 08:37:02;;;;;;;3.97;2.08;;;;;;;21.41;35.22;101674.81;5069459;28;20052;-72
2022/08/31 08:39:30;;;;;;;5.28;2.50;;;;;;;21.48;35.25;101668.31;5081429;28;20063;-71
2022/08/31 08:42:08;;;;;;;4.80;1.98;;;;;;;21.57;34.93;101665.44;5069069;28;20040;-71
2022/08/31 08:44:37;;;;;;;3.10;2.10;;;;;;;21.64;35.04;101670.06;5068205;28;20045;-71
2022/08/31 08:47:13;;;;;;;4.43;2.08;;;;;;;21.74;34.76;101679.03;5055883;28;20036;-72
2022/08/31 08:49:51;;;;;;;3.78;1.90;;;;;;;21.85;35.00;101673.00;5068482;28;20290;-71
2022/08/31 08:52:27;;;;;;;3.83;1.85;;;;;;;22.00;34.78;101675.88;5069005;28;20118;-71
2022/08/31 08:55:01;;;;;;;3.28;2.03;;;;;;;22.12;34.25;101679.03;5068386;28;20041;-71
2022/08/31 08:57:33;;;;;;;4.88;2.22;;;;;;;22.25;34.63;101676.47;5069223;28;20090;-71
2022/08/31 09:00:09;;;;;;;3.60;1.90;;;;;;;22.43;34.17;101682.50;5068338;28;20040;-71
2022/08/31 09:02:46;;;;;;;3.63;2.13;;;;;;;22.58;34.15;101677.84;5081548;28;20110;-72
2022/08/31 09:05:33;;;;;;;4.28;1.88;;;;;;;22.76;33.88;101676.53;5068572;28;20045;-73
2022/08/31 09:09:07;;;;;;;3.70;1.90;;;;;;;22.89;33.58;101680.38;5067831;28;20044;-71
2022/08/31 09:11:51;;;;;;;4.85;2.05;;;;;;;23.07;33.30;101674.38;5061651;28;20055;-71
2022/08/31 09:14:35;;;;;;;3.28;1.88;;;;;;;23.17;32.32;101669.34;5069066;28;20094;-71
2022/08/31 09:17:15;;;;;;;4.72;2.20;;;;;;;23.29;32.08;101676.16;5067131;28;20079;-71
2022/08/31 09:19:59;;;;;;;5.15;1.90;;;;;;;23.40;33.02;101674.78;5064958;28;20051;-71
2022/08/31 09:22:32;;;;;;;2.78;1.83;;;;;;;23.48;32.33;101673.75;5076726;28;20078;-71
2022/08/31 09:25:02;;;;;;;4.10;2.28;;;;;;;23.50;32.04;101666.03;5080133;28;20399;-71
2022/08/31 09:27:59;;;;;;;3.35;2.13;;;;;;;23.58;31.91;101675.13;5053617;28;20040;-71
2022/08/31 09:30:50;;;;;;;4.38;2.28;;;;;;;23.56;30.84;101668.03;5080072;28;20422;-71
2022/08/31 09:33:20;;;;;;;2.72;1.88;;;;;;;23.59;31.55;101673.22;5066240;28;20048;-71
2022/08/31 09:35:55;;;;;;;3.97;2.28;;;;;;;23.63;31.42;101660.56;5063871;28;20102;-71
2022/08/31 09:38:29;;;;;;;4.22;2.00;;;;;;;23.66;31.77;101666.59;5074082;28;20049;-71
2022/08/31 09:40:58;;;;;;;3.53;2.13;;;;;;;23.65;32.10;101664.91;5084086;28;20093;-71
2022/08/31 09:43:36;;;;;;;3.85;2.30;;;;;;;23.64;31.23;101668.75;5078604;28;20060;-71
2022/08/31 09:46:08;;;;;;;4.03;2.10;;;;;;;23.69;31.63;101656.97;5082529;28;20037;-71
2022/08/31 09:48:50;;;;;;;2.55;1.75;;;;;;;23.79;31.41;101670.63;5091411;28;20475;-71
2022/08/31 09:51:24;;;;;;;3.80;1.98;;;;;;;23.85;31.18;101662.28;5081020;28;20044;-71
2022/08/31 09:56:55;;;;;;;3.40;2.00;;;;;;;24.00;30.82;101660.25;5078927;28;20128;-71
2022/08/31 09:59:35;;;;;;;4.97;2.00;;;;;;;24.08;30.77;101664.81;5085264;28;20078;-72
2022/08/31 10:02:08;;;;;;;3.70;2.38;;;;;;;24.14;30.15;101666.84;5065966;28;20040;-70
2022/08/31 10:04:49;;;;;;;4.35;2.50;;;;;;;24.17;29.78;101654.34;5070430;28;20047;-70
2022/08/31 10:07:36;;;;;;;4.03;2.30;;;;;;;24.23;29.76;101654.41;5064679;28;20746;-70
2022/08/31 10:10:09;;;;;;;2.90;1.95;;;;;;;24.27;30.25;101650.13;5072548;28;20429;-70
2022/08/31 10:13:02;;;;;;;3.95;2.00;;;;;;;24.32;30.47;101643.94;5084418;28;20048;-70
2022/08/31 10:15:39;;;;;;;3.58;2.10;;;;;;;24.37;30.56;101653.44;5072570;28;20052;-70
2022/08/31 10:18:12;;;;;;;3.75;2.05;;;;;;;24.43;29.98;101647.03;5078957;28;20054;-70
2022/08/31 10:20:47;;;;;;;4.18;2.05;;;;;;;24.48;30.34;101643.63;5077639;28;20071;-70
2022/08/31 10:23:26;;;;;;;2.70;1.77;;;;;;;24.57;29.89;101644.31;5069657;28;20079;-70
2022/08/31 10:26:01;;;;;;;3.50;2.13;;;;;;;24.64;29.71;101646.06;5074558;28;20464;-71
2022/08/31 10:28:35;;;;;;;4.43;2.58;;;;;;;24.69;29.60;101640.69;5070380;28;20788;-70
2022/08/31 10:31:12;;;;;;;4.22;1.95;;;;;;;24.77;29.15;101639.63;5084377;28;20037;-71
2022/08/31 10:36:39;;;;;;;3.22;2.05;;;;;;;24.94;29.41;101640.16;5052364;28;20059;-71
2022/08/31 10:39:19;;;;;;;4.65;2.00;;;;;;;25.05;28.87;101645.16;5059843;28;20064;-71
2022/08/31 10:41:50;;;;;;;4.05;2.00;;;;;;;25.12;29.06;101638.50;5074905;28;20056;-71
2022/08/31 10:44:25;;;;;;;2.47;1.83;;;;;;;25.18;28.91;101640.44;5079358;28;20049;-71
2022/08/31 10:46:57;;;;;;;2.97;2.00;;;;;;;25.25;28.87;101641.31;5081292;28;20036;-72
2022/08/31 10:49:26;;;;;;;3.83;2.08;;;;;;;25.27;28.67;101639.16;5071076;28;20052;-72
2022/08/31 10:52:02;;;;;;;3.28;1.95;;;;;;;25.36;28.39;101636.16;5071714;28;20067;-72
2022/08/31 10:54:41;;;;;;;4.20;2.30;;;;;;;25.37;28.34;101635.09;5083446;28;20048;-71
2022/08/31 10:57:30;;;;;;;4.28;2.00;;;;;;;25.40;28.18;101637.44;5073555;28;20045;-71
2022/08/31 11:00:06;;;;;;;3.55;1.90;;;;;;;25.40;28.22;101640.25;5085391;28;20067;-72
2022/08/31 11:02:57;;;;;;;3.55;2.38;;;;;;;25.35;27.45;101640.91;5064027;28;20143;-72
2022/08/31 11:05:34;;;;;;;3.63;2.10;;;;;;;25.38;27.96;101646.09;5081610;28;20435;-72
2022/08/31 11:08:22;;;;;;;3.30;2.17;;;;;;;25.36;27.75;101644.56;5068407;28;20056;-72
2022/08/31 11:10:53;;;;;;;3.53;2.20;;;;;;;25.32;27.98;101640.47;5072669;28;20122;-72
2022/08/31 11:13:47;;;;;;;3.08;2.28;;;;;;;25.31;27.80;101639.59;5069703;28;20040;-72
2022/08/31 11:16:32;;;;;;;3.90;2.30;;;;;;;25.27;27.66;101641.09;5079285;28;20079;-72
2022/08/31 11:19:35;;;;;;;3.13;2.13;;;;;;;25.20;27.75;101637.44;5069055;28;20421;-72
2022/08/31 11:22:52;;;;;;;3.45;2.22;;;;;;;25.07;27.90;101645.78;5071193;28;20036;-72
2022/08/31 11:25:46;;;;;;;3.40;2.20;;;;;;;25.02;27.43;101640.84;5056517;28;20055;-72
2022/08/31 11:28:27;;;;;;;3.88;2.13;;;;;;;24.98;28.19;101636.72;5075012;28;20036;-72
2022/08/31 11:31:00;;;;;;;3.30;2.30;;;;;;;24.94;28.12;101638.22;5086852;28;20496;-72
2022/08/31 11:33:30;;;;;;;4.65;2.20;;;;;;;24.93;28.33;101635.59;5068748;28;20067;-72
2022/08/31 11:36:04;;;;;;;3.38;2.08;;;;;;;24.93;28.20;101638.41;5077719;28;20048;-71
2022/08/31 11:38:48;;;;;;;3.83;2.30;;;;;;;24.85;28.01;101633.84;5073710;28;20665;-72
2022/08/31 11:41:40;;;;;;;3.92;2.20;;;;;;;24.80;28.41;101630.84;5062253;28;20040;-72
2022/08/31 11:44:10;;;;;;;3.97;2.30;;;;;;;24.81;28.50;101632.56;5064696;28;20508;-72
2022/08/31 11:47:03;;;;;;;4.90;2.67;;;;;;;24.73;28.29;101622.38;5087643;28;20058;-72
2022/08/31 11:49:45;;;;;;;3.55;2.10;;;;;;;24.79;28.56;101624.38;5077283;28;20077;-72
2022/08/31 11:52:28;;;;;;;5.65;2.70;;;;;;;24.69;28.16;101623.91;5065971;28;20379;-71
2022/08/31 11:55:12;;;;;;;4.40;2.50;;;;;;;24.70;28.39;101619.16;5075032;28;20120;-72
2022/08/31 11:58:14;;;;;;;4.28;2.90;;;;;;;24.65;28.51;101622.56;5075846;28;20064;-73
2022/08/31 12:01:29;;;;;;;4.13;2.70;;;;;;;24.59;28.59;101615.00;5070278;28;20057;-72
2022/08/31 12:04:02;;;;;;;4.10;2.60;;;;;;;24.58;28.69;101624.47;5070526;28;20040;-72
2022/08/31 12:07:07;;;;;;;3.97;2.55;;;;;;;24.57;28.46;101619.13;5084470;28;20047;-71
2022/08/31 12:10:03;;;;;;;3.88;2.40;;;;;;;24.52;28.46;101617.78;5069448;28;20491;-72
2022/08/31 12:13:06;;;;;;;4.28;2.30;;;;;;;24.54;28.45;101611.13;5072284;28;20040;-72
2022/08/31 12:15:51;;;;;;;3.63;2.60;;;;;;;24.54;28.55;101606.41;5085196;28;20040;-72
2022/08/31 12:18:38;;;;;;;4.57;2.70;;;;;;;24.55;28.35;101608.13;5069854;28;20482;-72